Pagrindinis puslapis
METAR-TAF:

METAR-TAF

Oro uostai :

Ndžamena, Čadas

platuma: 12-08N, ilguma: 015-02E, Aukštis: 295 m

Dabartinis oras

Ataskaita buvo paskelbta 1 valandą ir 9 minutes, ne 20:00 UTC
Vėjas 2 kt iš Šiaurės/Šiaurės Rytų
Temperatūra 22°C
Drėgmė 21%
Slėgis 1011 hPa
Matomumas: 6000 m

METAR: FTTJ 172000Z 02002KT 6000 NSC 22/M01 Q1011 NOSIG

Laikas: 22:09 (21:09 UTC)

Prognozė

Ataskaita buvo paskelbta 4 valandos ir 9 minutes, ne 17:00 UTC
Prognozė galioja nuo 17 metu 18 UTC su 18 metu 24 UTC
Vėjas 6 kt iš Šiaurės
Matomumas: 8000 m

TAF: FTTJ 171700Z 1718/1824 36006KT 8000 NSC

Orai ataskaitas ir orų prognozės (METAR, TAF).

turimą stotys yra geltonos ir raudonos taškus žemėlapyje.

Perkelti pele per norėdami pamatyti stoties vardą.

Tada spustelėkite, norėdami matyti oro stebėjimo ir prognozės.

Norėdami pakeisti žemėlapį: spustelėkite ant žalios mygtukų su juodo kryžiaus žemyn,; žalią mygtuką su brūkšneliu, jei norite nutolinti; arba žalių rodyklių gretimoms žemėlapius.


METAR-TAF: